Time;durP1;ratioP1;P1;durP2;ratioP2;P2;SDS_P1;SDS_P2;PMS_P1;PMS_P2;Temp;Humidity;BMP_temperature;BMP_pressure;BME280_temperature;BME280_humidity;BME280_pressure;Samples;Min_cycle;Max_cycle;Signal;HPM_P1;HPM_P2
2022/05/20 00:00:40;;;;;;;24.35;21.92;;;;;;;14.13;92.21;101987.72;2087753;28;44245;-70
2022/05/20 00:01:41;;;;;;;25.10;22.83;;;;;;;14.13;92.08;101993.97;2087520;28;43087;-71
2022/05/20 00:02:48;;;;;;;26.42;23.55;;;;;;;14.14;92.32;101989.50;2087804;28;44562;-71
2022/05/20 00:03:50;;;;;;;25.83;23.17;;;;;;;14.10;92.09;101988.69;2086808;28;45817;-71
2022/05/20 00:04:52;;;;;;;24.95;22.38;;;;;;;14.11;92.14;101998.50;2087817;28;46327;-70
2022/05/20 00:05:54;;;;;;;24.88;21.27;;;;;;;14.12;92.30;101994.91;2087773;28;20914;-70
2022/05/20 00:06:55;;;;;;;27.40;24.30;;;;;;;14.11;92.63;102003.03;2086750;28;45477;-71
2022/05/20 00:07:57;;;;;;;24.02;21.67;;;;;;;14.09;92.47;102005.75;2087382;28;45186;-70
2022/05/20 00:08:59;;;;;;;24.15;21.98;;;;;;;14.10;92.61;102004.84;2087706;28;42433;-71
2022/05/20 00:10:03;;;;;;;25.55;22.67;;;;;;;14.11;92.64;102003.91;2088186;28;20029;-71
2022/05/20 00:11:05;;;;;;;24.13;21.67;;;;;;;14.07;92.10;102015.66;2086908;28;44458;-70
2022/05/20 00:12:10;;;;;;;22.98;20.83;;;;;;;14.10;92.63;102006.63;2087469;28;20037;-70
2022/05/20 00:13:12;;;;;;;21.63;19.27;;;;;;;14.08;92.14;102014.72;2087339;28;44956;-70
2022/05/20 00:14:14;;;;;;;20.90;18.30;;;;;;;14.03;91.42;102011.28;2086699;28;44695;-71
2022/05/20 00:15:22;;;;;;;16.58;15.07;;;;;;;14.00;90.78;102019.41;2086431;28;45145;-70
2022/05/20 00:16:24;;;;;;;18.20;15.50;;;;;;;14.00;90.81;102021.19;2087058;28;45791;-71
2022/05/20 00:17:26;;;;;;;17.05;15.23;;;;;;;13.94;90.33;102020.41;2088749;28;45516;-71
2022/05/20 00:18:30;;;;;;;14.98;13.48;;;;;;;13.93;90.28;102024.00;2088065;28;20078;-70
2022/05/20 00:19:33;;;;;;;15.65;14.07;;;;;;;13.92;90.59;102026.72;2087324;28;42918;-71
2022/05/20 00:20:34;;;;;;;16.67;15.05;;;;;;;13.85;90.18;102022.38;2087110;28;45639;-71
2022/05/20 00:21:36;;;;;;;17.55;13.70;;;;;;;13.82;89.67;102022.44;2088142;28;21004;-71
2022/05/20 00:22:38;;;;;;;13.13;11.88;;;;;;;13.85;89.98;102030.44;2087428;28;43229;-71
2022/05/20 00:23:40;;;;;;;16.17;13.70;;;;;;;13.81;89.24;102031.44;2086806;28;44001;-70
2022/05/20 00:26:02;;;;;;;14.88;12.75;;;;;;;13.74;89.28;102026.16;2087476;28;44257;-71
2022/05/20 00:27:04;;;;;;;15.13;11.30;;;;;;;13.74;89.28;102027.97;2087502;28;41142;-70
2022/05/20 00:28:06;;;;;;;12.32;11.02;;;;;;;13.72;89.05;102032.50;2087461;28;43260;-70
2022/05/20 00:29:07;;;;;;;15.05;11.07;;;;;;;13.71;89.14;102036.09;2086526;28;45574;-70
2022/05/20 00:30:10;;;;;;;12.25;10.90;;;;;;;13.69;88.89;102030.75;2086874;28;45512;-71
2022/05/20 00:31:13;;;;;;;14.02;10.65;;;;;;;13.72;89.67;102036.06;2087039;28;45520;-71
2022/05/20 00:32:15;;;;;;;12.40;11.10;;;;;;;13.71;89.69;102026.22;2087135;28;44372;-71
2022/05/20 00:33:17;;;;;;;12.82;11.48;;;;;;;13.71;89.65;102017.25;2087351;28;39980;-71
2022/05/20 00:34:19;;;;;;;13.77;10.45;;;;;;;13.69;89.87;102027.16;2087392;28;45227;-71
2022/05/20 00:35:22;;;;;;;12.77;10.73;;;;;;;13.67;89.71;102027.19;2087133;28;45963;-71
2022/05/20 00:36:23;;;;;;;11.85;10.18;;;;;;;13.69;89.41;102029.84;2087354;28;43849;-72
2022/05/20 00:37:25;;;;;;;12.70;10.68;;;;;;;13.67;89.64;102023.63;2087719;28;43887;-70
2022/05/20 00:38:27;;;;;;;12.98;10.48;;;;;;;13.67;89.34;102037.94;2078580;28;43174;-70
2022/05/20 00:39:28;;;;;;;12.50;10.13;;;;;;;13.66;89.08;102028.13;2078306;28;45404;-71
2022/05/20 00:40:34;;;;;;;11.55;10.35;;;;;;;13.64;90.07;102032.66;2088530;28;20880;-71
2022/05/20 00:41:36;;;;;;;16.40;11.65;;;;;;;13.65;89.75;102030.84;2086843;28;44136;-71
2022/05/20 00:42:37;;;;;;;11.82;10.65;;;;;;;13.65;89.96;102030.84;2087000;28;44924;-70
2022/05/20 00:43:46;;;;;;;12.43;11.15;;;;;;;13.63;90.64;102033.53;2086897;28;44545;-71
2022/05/20 00:44:47;;;;;;;14.27;11.32;;;;;;;13.60;90.55;102030.91;2086933;28;44069;-71
2022/05/20 00:45:49;;;;;;;12.23;10.88;;;;;;;13.60;90.82;102024.63;2087456;28;43699;-71
2022/05/20 00:46:53;;;;;;;12.35;11.15;;;;;;;13.60;90.70;102012.06;2088603;28;20861;-71
2022/05/20 00:47:55;;;;;;;11.75;10.52;;;;;;;13.61;90.54;102016.53;2087770;28;46172;-71
2022/05/20 00:49:12;;;;;;;12.50;11.20;;;;;;;13.62;90.37;102014.72;2087878;28;43287;-70
2022/05/20 00:50:17;;;;;;;13.23;11.88;;;;;;;13.62;91.29;102015.66;2087703;28;36234;-71
2022/05/20 00:51:36;;;;;;;11.90;10.70;;;;;;;13.61;90.79;102016.53;2078301;28;45325;-71
2022/05/20 00:52:42;;;;;;;12.85;10.25;;;;;;;13.60;90.84;102022.81;2073184;28;40922;-71
2022/05/20 00:54:03;;;;;;;11.40;9.80;;;;;;;13.61;91.00;102026.44;2063268;28;44056;-71
2022/05/20 00:55:13;;;;;;;12.35;9.85;;;;;;;13.56;91.19;102029.19;2060680;28;20078;-71
2022/05/20 00:56:20;;;;;;;12.57;10.55;;;;;;;13.55;90.89;102031.00;2066574;28;45818;-71
2022/05/20 00:57:29;;;;;;;9.95;8.73;;;;;;;13.56;90.46;102032.75;2072580;28;20973;-71
2022/05/20 00:58:33;;;;;;;11.70;9.00;;;;;;;13.55;90.38;102035.50;2080256;28;38359;-70
2022/05/20 00:59:39;;;;;;;9.82;8.52;;;;;;;13.50;90.39;102029.31;2078210;28;25312;-71
2022/05/20 01:00:48;;;;;;;9.48;7.82;;;;;;;13.50;90.10;102032.88;2079912;28;27346;-72
2022/05/20 01:01:54;;;;;;;11.68;8.07;;;;;;;13.48;90.21;102023.97;2086244;28;43522;-71
2022/05/20 01:03:03;;;;;;;10.93;7.80;;;;;;;13.49;89.83;102032.91;2084682;28;46556;-71
2022/05/20 01:04:05;;;;;;;10.38;8.40;;;;;;;13.47;89.92;102037.44;2071063;28;44506;-71
2022/05/20 01:05:35;;;;;;;10.10;6.97;;;;;;;13.46;90.20;102025.78;2078790;28;44741;-71
2022/05/20 01:06:37;;;;;;;8.50;6.32;;;;;;;13.44;89.97;102033.00;2087606;28;34654;-71
2022/05/20 01:07:40;;;;;;;7.35;5.53;;;;;;;13.41;89.44;102032.16;2087417;28;26492;-72
2022/05/20 01:08:41;;;;;;;8.93;4.85;;;;;;;13.39;89.51;102040.25;2085772;28;44631;-71
2022/05/20 01:09:46;;;;;;;7.20;4.53;;;;;;;13.37;89.54;102031.34;2080011;28;20037;-71
2022/05/20 01:10:48;;;;;;;8.48;5.05;;;;;;;13.39;89.55;102033.97;2087311;28;43954;-71
2022/05/20 01:11:52;;;;;;;6.32;3.95;;;;;;;13.34;88.78;102036.75;2086231;28;45285;-71
2022/05/20 01:12:57;;;;;;;6.97;4.07;;;;;;;13.27;88.60;102030.53;2078328;28;43148;-71
2022/05/20 01:13:58;;;;;;;7.57;3.80;;;;;;;13.28;89.27;102045.78;2071251;28;44793;-72
2022/05/20 01:15:02;;;;;;;9.38;3.65;;;;;;;13.26;88.57;102046.72;2079100;28;43476;-71
2022/05/20 01:16:11;;;;;;;6.47;3.08;;;;;;;13.25;88.73;102050.31;2078000;28;44023;-71
2022/05/20 01:17:13;;;;;;;5.00;3.08;;;;;;;13.20;88.37;102055.78;2071034;28;44482;-71
2022/05/20 01:18:16;;;;;;;4.07;2.47;;;;;;;13.22;88.75;102048.56;2080159;28;20069;-70
2022/05/20 01:19:42;;;;;;;4.45;3.00;;;;;;;13.20;88.79;102047.69;2087816;28;44896;-71
2022/05/20 01:20:48;;;;;;;7.00;2.78;;;;;;;13.18;88.66;102044.16;2082842;28;45747;-71
2022/05/20 01:21:49;;;;;;;5.30;3.13;;;;;;;13.15;88.83;102041.50;2072070;28;42798;-71
2022/05/20 01:22:53;;;;;;;5.25;3.05;;;;;;;13.11;89.20;102043.34;2080304;28;20950;-71
2022/05/20 01:24:03;;;;;;;5.57;2.92;;;;;;;13.09;89.12;102052.38;2087224;28;42924;-71
2022/05/20 01:25:08;;;;;;;5.65;2.63;;;;;;;13.09;89.30;102047.88;2086328;28;43366;-71
2022/05/20 01:26:11;;;;;;;4.80;3.10;;;;;;;13.09;89.67;102049.69;2077127;28;45646;-71
2022/05/20 01:27:12;;;;;;;8.05;3.00;;;;;;;13.07;89.24;102055.06;2070577;28;45171;-71
2022/05/20 01:28:16;;;;;;;8.38;3.30;;;;;;;13.05;89.63;102050.66;2086732;28;44825;-71
2022/05/20 01:29:18;;;;;;;5.35;2.72;;;;;;;13.02;89.74;102056.94;2087092;28;32526;-71
2022/05/20 01:30:24;;;;;;;5.90;3.10;;;;;;;13.00;89.51;102045.31;2086925;28;45276;-71
2022/05/20 01:31:25;;;;;;;3.78;2.60;;;;;;;12.99;89.08;102047.13;2085905;28;45302;-71
2022/05/20 01:32:27;;;;;;;6.82;2.67;;;;;;;12.99;90.01;102055.19;2085897;28;45731;-71
2022/05/20 01:33:36;;;;;;;7.10;2.67;;;;;;;12.98;89.29;102049.84;2086623;28;46033;-71
2022/05/20 01:34:38;;;;;;;3.30;2.25;;;;;;;12.95;89.34;102045.38;2087811;28;32691;-71
2022/05/20 01:35:44;;;;;;;4.57;2.40;;;;;;;12.96;89.82;102039.09;2086752;28;43302;-71
2022/05/20 01:36:46;;;;;;;4.00;2.03;;;;;;;12.93;89.24;102044.53;2086322;28;44445;-71
2022/05/20 01:37:47;;;;;;;5.85;2.28;;;;;;;12.89;89.12;102048.19;2087023;28;45414;-71
2022/05/20 01:38:53;;;;;;;5.28;2.10;;;;;;;12.92;89.20;102050.81;2087146;28;45040;-71
2022/05/20 01:39:54;;;;;;;5.40;1.80;;;;;;;12.89;89.02;102040.13;2086681;28;37453;-71
2022/05/20 01:41:27;;;;;;;4.70;1.88;;;;;;;12.87;89.26;102047.31;2086320;28;45798;-71
2022/05/20 01:42:54;;;;;;;4.47;1.33;;;;;;;12.88;88.99;102045.50;2087827;28;28283;-71
2022/05/20 01:44:09;;;;;;;4.13;1.80;;;;;;;12.87;88.59;102041.94;2086698;28;42945;-71
2022/05/20 01:45:27;;;;;;;1.95;1.27;;;;;;;12.87;89.09;102047.31;2086946;28;34244;-72
2022/05/20 01:46:37;;;;;;;4.32;1.40;;;;;;;12.87;88.50;102046.44;2086731;28;44309;-71
2022/05/20 01:48:09;;;;;;;5.15;2.22;;;;;;;12.85;88.83;102050.91;2086637;28;45683;-71
2022/05/20 01:49:32;;;;;;;3.38;1.77;;;;;;;12.85;89.15;102054.53;2087192;28;45094;-71
2022/05/20 01:50:47;;;;;;;6.82;1.80;;;;;;;12.86;89.32;102050.91;2081327;28;20034;-72
2022/05/20 01:51:58;;;;;;;4.25;1.63;;;;;;;12.85;89.18;102056.28;2073841;28;44487;-71
2022/05/20 01:53:13;;;;;;;4.20;2.03;;;;;;;12.82;88.69;102049.19;2072485;28;44470;-70
2022/05/20 01:54:40;;;;;;;4.93;2.15;;;;;;;12.80;89.30;102046.50;2072738;28;44185;-71
2022/05/20 01:56:00;;;;;;;3.47;1.50;;;;;;;12.79;89.03;102050.13;2074340;28;44020;-71
2022/05/20 01:57:26;;;;;;;5.15;1.92;;;;;;;12.77;89.03;102051.91;2075626;28;43091;-70
2022/05/20 01:58:43;;;;;;;3.80;1.77;;;;;;;12.78;89.24;102055.53;2073131;28;44168;-71
2022/05/20 01:59:53;;;;;;;4.13;1.77;;;;;;;12.77;89.06;102056.41;2082906;28;44476;-70
2022/05/20 02:01:03;;;;;;;3.60;1.52;;;;;;;12.75;88.83;102059.13;2086149;28;43507;-71
2022/05/20 02:02:24;;;;;;;4.05;1.40;;;;;;;12.73;88.43;102055.56;2084613;28;21187;-71
2022/05/20 02:03:37;;;;;;;4.97;1.27;;;;;;;12.75;89.01;102059.13;2073213;28;42857;-71
2022/05/20 02:04:49;;;;;;;3.95;1.15;;;;;;;12.75;89.00;102053.75;2065014;28;45178;-71
2022/05/20 02:05:59;;;;;;;3.28;1.42;;;;;;;12.73;87.85;102060.06;2071647;28;38801;-71
2022/05/20 02:07:11;;;;;;;4.63;1.38;;;;;;;12.73;87.91;102057.38;2080178;28;44015;-71
2022/05/20 02:08:22;;;;;;;6.25;1.60;;;;;;;12.74;88.09;102067.19;2086381;28;42915;-71
2022/05/20 02:09:33;;;;;;;2.47;1.15;;;;;;;12.70;87.42;102069.03;2086635;28;43081;-72
2022/05/20 02:10:47;;;;;;;4.38;1.33;;;;;;;12.70;87.34;102068.16;2086053;28;43954;-71
2022/05/20 02:11:53;;;;;;;5.50;1.33;;;;;;;12.69;87.98;102072.66;2087904;28;44329;-71
2022/05/20 02:13:01;;;;;;;2.17;1.30;;;;;;;12.71;88.08;102061.88;2088676;28;20076;-71
2022/05/20 02:14:31;;;;;;;4.45;1.05;;;;;;;12.70;87.63;102057.41;2086483;28;44233;-71
2022/05/20 02:16:01;;;;;;;4.50;1.50;;;;;;;12.65;87.50;102061.94;2084664;28;44602;-71
2022/05/20 02:17:17;;;;;;;2.47;1.20;;;;;;;12.63;88.01;102059.28;2079086;28;45898;-71
2022/05/20 02:18:29;;;;;;;3.97;1.20;;;;;;;12.63;87.90;102063.78;2081658;28;46088;-71
2022/05/20 02:19:38;;;;;;;4.82;1.20;;;;;;;12.59;87.56;102060.25;2087812;28;43392;-71
2022/05/20 02:20:48;;;;;;;4.63;1.60;;;;;;;12.59;87.71;102068.31;2085326;28;44319;-71
2022/05/20 02:21:55;;;;;;;3.40;1.10;;;;;;;12.58;88.05;102067.41;2081253;28;45734;-71
2022/05/20 02:23:07;;;;;;;5.78;1.60;;;;;;;12.56;87.71;102063.88;2078578;28;43565;-71
2022/05/20 02:24:14;;;;;;;5.47;1.20;;;;;;;12.56;88.45;102057.59;2081949;28;44014;-71
2022/05/20 02:25:27;;;;;;;5.30;1.33;;;;;;;12.54;88.37;102054.94;2087498;28;42981;-71
2022/05/20 02:26:36;;;;;;;2.72;1.42;;;;;;;12.55;88.59;102059.41;2087155;28;45699;-71
2022/05/20 02:27:43;;;;;;;6.05;1.30;;;;;;;12.52;87.99;102056.75;2086949;28;45945;-71
2022/05/20 02:28:51;;;;;;;5.00;1.40;;;;;;;12.50;87.99;102050.50;2078931;28;45383;-71
2022/05/20 02:30:12;;;;;;;2.90;1.42;;;;;;;12.47;88.12;102052.34;2064285;28;43813;-71
2022/05/20 02:31:22;;;;;;;2.80;1.25;;;;;;;12.42;88.44;102049.72;2066703;28;42445;-71
2022/05/20 02:32:46;;;;;;;3.00;1.17;;;;;;;12.35;88.77;102053.41;2066636;28;45523;-71
2022/05/20 02:33:49;;;;;;;5.90;1.40;;;;;;;12.30;89.27;102049.88;2074822;28;44256;-71
2022/05/20 02:34:52;;;;;;;3.40;1.45;;;;;;;12.26;89.46;102051.72;2079055;28;44619;-72
2022/05/20 02:36:33;;;;;;;3.17;1.50;;;;;;;12.19;89.84;102056.25;2078916;28;43106;-71
2022/05/20 02:37:38;;;;;;;3.47;2.00;;;;;;;12.10;90.01;102053.69;2080019;28;20197;-72
2022/05/20 02:38:40;;;;;;;4.70;1.52;;;;;;;12.05;90.26;102055.53;2079269;28;44210;-72
2022/05/20 02:39:42;;;;;;;2.90;1.70;;;;;;;12.03;90.32;102060.03;2079215;28;44763;-72
2022/05/20 02:40:52;;;;;;;2.72;1.30;;;;;;;11.97;90.68;102057.41;2079733;28;43509;-72
2022/05/20 02:41:54;;;;;;;3.67;1.48;;;;;;;11.93;91.36;102061.91;2079483;28;45400;-72
2022/05/20 02:42:56;;;;;;;5.15;1.55;;;;;;;11.91;91.35;102054.78;2079922;28;46206;-72
2022/05/20 02:43:59;;;;;;;4.97;1.90;;;;;;;11.88;91.27;102060.16;2080760;28;20111;-72
2022/05/20 02:45:01;;;;;;;4.28;1.80;;;;;;;11.86;91.76;102052.09;2079869;28;44786;-72
2022/05/20 02:46:03;;;;;;;2.42;1.50;;;;;;;11.83;91.66;102050.34;2071758;28;20042;-71
2022/05/20 02:47:05;;;;;;;3.13;1.58;;;;;;;11.78;91.87;102052.19;2071670;28;44440;-72
2022/05/20 02:48:08;;;;;;;5.20;2.00;;;;;;;11.77;92.12;102047.75;2070524;28;43764;-72
2022/05/20 02:49:10;;;;;;;6.75;2.08;;;;;;;11.71;92.12;102044.22;2071670;28;34831;-72
2022/05/20 02:50:12;;;;;;;4.15;1.83;;;;;;;11.67;92.30;102047.84;2079900;28;45120;-72
2022/05/20 02:51:16;;;;;;;4.47;1.80;;;;;;;11.62;92.67;102048.75;2080650;28;42963;-72
2022/05/20 02:52:19;;;;;;;3.55;1.90;;;;;;;11.57;92.65;102050.59;2079746;28;45598;-72
2022/05/20 02:53:21;;;;;;;5.38;2.28;;;;;;;11.55;92.99;102039.00;2079673;28;45840;-71
2022/05/20 02:54:22;;;;;;;5.40;2.10;;;;;;;11.52;93.37;102046.19;2080107;28;36398;-72
2022/05/20 02:55:24;;;;;;;5.50;2.20;;;;;;;11.50;93.67;102034.59;2079713;28;45256;-72
2022/05/20 02:56:26;;;;;;;8.40;2.67;;;;;;;11.46;93.63;102034.59;2079608;28;46084;-72
2022/05/20 02:57:28;;;;;;;5.10;2.50;;;;;;;11.43;93.72;102031.97;2071427;28;41645;-71
2022/05/20 03:04:10;;;;;;;7.10;3.05;;;;;;;11.24;94.58;102036.59;2081529;28;43984;-72
2022/05/20 03:05:14;;;;;;;4.43;2.08;;;;;;;11.19;95.12;102034.84;2083824;28;46635;-72
2022/05/20 03:06:16;;;;;;;4.43;2.10;;;;;;;11.16;94.59;102030.41;2087307;28;44697;-72
2022/05/20 03:07:20;;;;;;;6.07;2.42;;;;;;;11.12;94.82;102027.75;2088329;28;20552;-72
2022/05/20 03:08:22;;;;;;;7.90;2.85;;;;;;;11.07;94.76;102030.47;2087403;28;41224;-72
2022/05/20 03:09:27;;;;;;;6.90;2.95;;;;;;;11.02;94.97;102025.16;2086837;28;45381;-72
2022/05/20 03:10:29;;;;;;;3.78;2.22;;;;;;;10.99;95.21;102018.94;2087998;28;46484;-72
2022/05/20 03:11:31;;;;;;;6.90;3.10;;;;;;;10.97;95.23;102018.94;2088126;28;28551;-71
2022/05/20 03:12:35;;;;;;;5.05;2.78;;;;;;;10.95;95.79;102019.84;2088048;28;31008;-72
2022/05/20 03:13:37;;;;;;;3.00;1.88;;;;;;;10.92;95.30;102017.19;2087450;28;44448;-71
2022/05/20 03:14:39;;;;;;;4.45;2.40;;;;;;;10.87;95.76;102022.56;2087638;28;45835;-71
2022/05/20 03:15:41;;;;;;;4.13;2.55;;;;;;;10.84;95.90;102017.25;2087409;28;45841;-72
2022/05/20 03:16:43;;;;;;;3.97;2.50;;;;;;;10.81;95.79;102019.94;2089164;28;31404;-72
2022/05/20 03:17:45;;;;;;;9.70;3.80;;;;;;;10.80;96.11;102016.38;2087404;28;45587;-72
2022/05/20 03:18:47;;;;;;;6.15;2.60;;;;;;;10.76;96.54;102017.28;2086492;28;46171;-71
2022/05/20 03:19:48;;;;;;;7.18;3.10;;;;;;;10.76;96.89;102013.72;2079343;28;43485;-71
2022/05/20 03:20:51;;;;;;;5.30;3.35;;;;;;;10.72;96.41;102015.53;2080818;28;44397;-71
2022/05/20 03:21:53;;;;;;;7.20;2.83;;;;;;;10.74;96.46;102015.53;2071026;28;45167;-71
2022/05/20 03:22:54;;;;;;;6.53;3.03;;;;;;;10.70;96.62;102014.66;2071153;28;42511;-72
2022/05/20 03:23:59;;;;;;;7.38;3.42;;;;;;;10.67;96.49;102023.59;2078770;28;45365;-71
2022/05/20 03:25:04;;;;;;;5.95;3.20;;;;;;;10.63;96.26;102019.16;2079096;28;43503;-71
2022/05/20 03:26:05;;;;;;;6.80;3.47;;;;;;;10.61;96.75;102020.06;2071492;28;44196;-71
2022/05/20 03:27:10;;;;;;;7.22;3.22;;;;;;;10.59;96.47;102022.75;2070545;28;46004;-71
2022/05/20 03:28:12;;;;;;;5.40;3.40;;;;;;;10.56;97.01;102016.53;2071917;28;20089;-72
2022/05/20 03:29:14;;;;;;;6.25;2.85;;;;;;;10.55;96.96;102029.03;2079127;28;45160;-71
2022/05/20 03:30:16;;;;;;;5.95;3.03;;;;;;;10.52;96.94;102026.38;2087166;28;44253;-71
2022/05/20 03:31:18;;;;;;;5.95;3.10;;;;;;;10.50;97.04;102026.38;2087009;28;45421;-71
2022/05/20 03:32:20;;;;;;;6.32;3.25;;;;;;;10.48;97.32;102025.50;2062817;28;45905;-71
2022/05/20 03:33:22;;;;;;;5.28;3.15;;;;;;;10.49;96.90;102029.03;2071030;28;44171;-72
2022/05/20 03:34:24;;;;;;;4.53;3.42;;;;;;;10.47;96.93;102028.16;2086938;28;45599;-72
2022/05/20 03:35:25;;;;;;;10.45;4.40;;;;;;;10.51;98.06;102027.25;2088447;28;20049;-72
2022/05/20 03:36:29;;;;;;;6.10;3.92;;;;;;;10.48;97.69;102025.50;2088653;28;20169;-72
2022/05/20 03:37:33;;;;;;;5.63;3.50;;;;;;;10.50;97.86;102028.16;2087977;28;46288;-72
2022/05/20 03:38:36;;;;;;;6.93;3.95;;;;;;;10.49;97.70;102026.38;2086734;28;44051;-72
2022/05/20 03:39:37;;;;;;;7.38;4.30;;;;;;;10.49;97.44;102027.25;2087828;28;20119;-72
2022/05/20 03:40:39;;;;;;;6.93;3.80;;;;;;;10.49;97.26;102023.69;2088409;28;20910;-72
2022/05/20 03:41:42;;;;;;;5.70;3.63;;;;;;;10.49;97.45;102031.72;2078734;28;45672;-72
2022/05/20 03:42:43;;;;;;;7.68;3.55;;;;;;;10.49;97.52;102032.59;2062782;28;44781;-72
2022/05/20 03:43:45;;;;;;;4.88;3.70;;;;;;;10.50;97.16;102028.16;2071446;28;44336;-72
2022/05/20 03:44:47;;;;;;;5.65;2.95;;;;;;;10.53;97.63;102032.59;2087548;28;37149;-72
2022/05/20 03:45:51;;;;;;;5.40;2.97;;;;;;;10.53;97.71;102022.75;2079005;28;44637;-72
2022/05/20 03:46:55;;;;;;;5.15;2.97;;;;;;;10.54;97.43;102023.69;2070676;28;42939;-71
2022/05/20 03:47:56;;;;;;;5.38;3.33;;;;;;;10.58;97.82;102028.13;2079468;28;45170;-72
2022/05/20 03:49:01;;;;;;;6.55;3.60;;;;;;;10.59;97.57;102028.09;2086951;28;43115;-71
2022/05/20 03:50:05;;;;;;;6.53;4.15;;;;;;;10.60;97.42;102029.00;2087642;28;34083;-72
2022/05/20 03:51:09;;;;;;;6.03;3.88;;;;;;;10.62;97.47;102029.88;2087484;28;43612;-71
2022/05/20 03:52:11;;;;;;;9.07;3.80;;;;;;;10.64;97.64;102034.34;2088943;28;44084;-72
2022/05/20 03:53:14;;;;;;;4.30;3.15;;;;;;;10.67;97.70;102034.28;2087164;28;44922;-72
2022/05/20 03:54:18;;;;;;;7.22;3.85;;;;;;;10.68;97.37;102037.88;2087605;28;44534;-72
2022/05/20 03:55:20;;;;;;;5.78;2.90;;;;;;;10.72;97.24;102039.63;2079442;28;21370;-72
2022/05/20 03:56:22;;;;;;;7.47;3.80;;;;;;;10.73;96.95;102040.50;2078835;28;44558;-71
2022/05/20 03:57:24;;;;;;;7.10;3.85;;;;;;;10.74;97.30;102042.31;2087393;28;43978;-72
2022/05/20 03:58:25;;;;;;;5.57;3.55;;;;;;;10.77;97.49;102039.63;2087785;28;45132;-72
2022/05/20 03:59:27;;;;;;;6.55;3.97;;;;;;;10.80;97.38;102042.25;2086282;28;44649;-72
2022/05/20 04:00:29;;;;;;;6.93;4.72;;;;;;;10.86;97.35;102042.25;2088428;28;20133;-72
2022/05/20 04:02:53;;;;;;;5.93;3.80;;;;;;;11.04;96.76;102034.06;2079305;28;44202;-71
2022/05/20 04:03:56;;;;;;;7.88;3.67;;;;;;;11.27;96.76;102035.69;2082374;28;31391;-71
2022/05/20 04:05:00;;;;;;;7.60;3.95;;;;;;;11.57;96.37;102036.31;2086543;28;46021;-72
2022/05/20 04:06:01;;;;;;;6.85;4.07;;;;;;;11.97;95.46;102036.84;2086868;28;45650;-71
2022/05/20 04:07:09;;;;;;;6.10;4.03;;;;;;;12.48;95.16;102038.91;2086880;28;46342;-72
2022/05/20 04:08:12;;;;;;;8.63;3.47;;;;;;;13.03;93.95;102036.31;2078446;28;42925;-71
2022/05/20 04:09:14;;;;;;;6.43;2.70;;;;;;;13.56;91.79;102035.44;2079377;28;44289;-72
2022/05/20 04:10:16;;;;;;;6.35;2.63;;;;;;;14.11;89.95;102036.22;2087365;28;44762;-71
2022/05/20 04:11:18;;;;;;;5.10;2.00;;;;;;;14.59;87.83;102031.66;2086967;28;44529;-72
2022/05/20 04:12:42;;;;;;;3.17;1.98;;;;;;;15.15;83.75;102029.47;2086928;28;45562;-71
2022/05/20 04:13:44;;;;;;;4.05;1.83;;;;;;;15.72;81.70;102035.19;2078617;28;44546;-72
2022/05/20 04:14:46;;;;;;;3.80;1.50;;;;;;;16.17;78.92;102030.38;2080158;28;37796;-72
2022/05/20 04:15:48;;;;;;;4.75;1.70;;;;;;;16.51;75.12;102031.19;2086955;28;43304;-72
2022/05/20 04:16:55;;;;;;;6.20;1.30;;;;;;;17.00;74.36;102037.81;2087455;28;45824;-72
2022/05/20 04:17:56;;;;;;;3.80;1.17;;;;;;;17.48;72.58;102029.00;2086773;28;43859;-71
2022/05/20 04:18:58;;;;;;;2.80;1.27;;;;;;;17.72;70.67;102038.06;2086966;28;44261;-72
2022/05/20 04:20:01;;;;;;;4.80;1.48;;;;;;;18.03;69.03;102028.00;2087261;28;35793;-71
2022/05/20 04:21:02;;;;;;;3.53;1.30;;;;;;;17.95;66.99;102028.28;2087341;28;45469;-72
2022/05/20 04:22:08;;;;;;;4.57;1.50;;;;;;;18.31;68.04;102036.84;2089795;28;30241;-72
2022/05/20 04:23:10;;;;;;;3.80;1.20;;;;;;;18.41;66.08;102036.50;2078576;28;44802;-72
2022/05/20 04:24:11;;;;;;;3.75;1.35;;;;;;;18.59;66.55;102033.09;2070389;28;30156;-72
2022/05/20 04:25:13;;;;;;;3.60;0.90;;;;;;;18.67;63.09;102036.38;2078885;28;39385;-72
2022/05/20 04:26:18;;;;;;;3.35;1.00;;;;;;;18.85;65.11;102042.06;2086510;28;44006;-72
2022/05/20 04:27:19;;;;;;;2.97;0.95;;;;;;;18.74;64.33;102044.28;2086749;28;44316;-72
2022/05/20 04:28:21;;;;;;;4.28;1.30;;;;;;;18.70;63.95;102038.97;2086996;28;43385;-73
2022/05/20 04:29:23;;;;;;;4.32;1.30;;;;;;;18.80;63.61;102036.78;2086527;28;45152;-72
2022/05/20 04:30:24;;;;;;;3.35;1.40;;;;;;;18.56;64.67;102032.34;2086462;28;42816;-72
2022/05/20 04:31:26;;;;;;;3.53;1.30;;;;;;;18.61;64.23;102043.88;2086461;28;47001;-71
2022/05/20 04:32:28;;;;;;;2.65;1.17;;;;;;;18.58;65.58;102054.84;2086415;28;44414;-72
2022/05/20 04:33:30;;;;;;;3.63;1.42;;;;;;;18.28;65.69;102053.22;2086873;28;43978;-72
2022/05/20 04:34:32;;;;;;;3.10;1.25;;;;;;;17.98;66.66;102048.94;2086053;28;43231;-72
2022/05/20 04:35:34;;;;;;;4.13;1.38;;;;;;;17.96;65.84;102048.13;2087549;28;42817;-72
2022/05/20 04:36:36;;;;;;;3.80;1.60;;;;;;;17.91;67.15;102046.47;2087187;28;37931;-72
2022/05/20 04:37:38;;;;;;;3.90;1.50;;;;;;;18.22;66.61;102053.47;2086795;28;43267;-72
2022/05/20 04:38:39;;;;;;;3.40;1.33;;;;;;;18.39;65.76;102057.38;2086911;28;45375;-72
2022/05/20 04:39:41;;;;;;;1.67;1.10;;;;;;;18.63;65.45;102053.72;2087100;28;45586;-72
2022/05/20 04:40:43;;;;;;;4.10;1.20;;;;;;;18.90;64.99;102050.91;2085756;28;45040;-72
2022/05/20 04:47:23;;;;;;;3.10;1.38;;;;;;;19.19;60.05;102066.00;2068813;28;44317;-72
2022/05/20 04:48:25;;;;;;;3.40;1.30;;;;;;;19.89;60.27;102063.09;2078170;28;45215;-72
2022/05/20 04:49:30;;;;;;;5.10;1.80;;;;;;;20.35;59.36;102067.34;2079592;28;42959;-72
2022/05/20 04:50:31;;;;;;;2.97;1.20;;;;;;;20.64;55.51;102067.84;2077877;28;45060;-72
2022/05/20 04:51:41;;;;;;;3.97;1.80;;;;;;;20.55;57.34;102073.69;2070888;28;44009;-72
2022/05/20 04:52:43;;;;;;;4.57;1.50;;;;;;;21.06;56.81;102066.72;2071585;28;42925;-72
2022/05/20 04:55:06;;;;;;;2.72;1.48;;;;;;;20.96;55.45;102070.84;2067304;28;44626;-72
2022/05/20 04:56:08;;;;;;;3.53;1.42;;;;;;;20.79;56.65;102071.69;2073062;28;43813;-71
2022/05/20 04:57:33;;;;;;;3.25;1.52;;;;;;;20.94;56.85;102076.41;2078434;28;45161;-72
2022/05/20 04:58:35;;;;;;;3.80;1.23;;;;;;;21.23;55.52;102076.81;2086785;28;44589;-72
2022/05/20 04:59:39;;;;;;;4.70;1.60;;;;;;;21.47;54.71;102079.28;2086195;28;43928;-72
2022/05/20 05:00:41;;;;;;;5.97;2.05;;;;;;;21.81;54.04;102080.28;2087284;28;46052;-72
2022/05/20 05:01:44;;;;;;;3.97;1.70;;;;;;;22.21;53.29;102072.69;2086531;28;45285;-72
2022/05/20 05:02:46;;;;;;;3.95;1.73;;;;;;;22.30;50.90;102073.09;2087355;28;44855;-72
2022/05/20 05:03:48;;;;;;;2.60;1.35;;;;;;;22.25;49.32;102077.03;2086846;28;44857;-72
2022/05/20 05:04:50;;;;;;;3.15;1.42;;;;;;;22.56;50.04;102080.81;2087993;28;21808;-73
2022/05/20 05:05:51;;;;;;;3.47;1.50;;;;;;;22.91;48.04;102083.44;2086297;28;45618;-72
2022/05/20 05:06:58;;;;;;;2.35;1.30;;;;;;;22.80;48.47;102079.47;2086469;28;44333;-72
2022/05/20 05:08:00;;;;;;;4.32;1.80;;;;;;;23.33;49.20;102076.47;2086273;28;46525;-72
2022/05/20 05:09:03;;;;;;;3.28;1.65;;;;;;;23.05;49.34;102072.66;2086609;28;44399;-72
2022/05/20 05:10:05;;;;;;;3.03;1.38;;;;;;;23.12;48.88;102081.38;2087103;28;40238;-72
2022/05/20 05:11:06;;;;;;;4.32;1.60;;;;;;;22.56;51.06;102084.47;2086210;28;45699;-73
2022/05/20 05:12:10;;;;;;;4.50;1.50;;;;;;;22.61;50.53;102086.91;2086293;28;45374;-72
2022/05/20 05:13:15;;;;;;;3.50;1.77;;;;;;;22.55;50.51;102090.88;2087690;28;20045;-73
2022/05/20 05:14:17;;;;;;;3.63;1.42;;;;;;;22.52;49.37;102087.44;2086274;28;44719;-73
2022/05/20 05:15:20;;;;;;;3.25;1.38;;;;;;;22.47;49.03;102083.13;2086856;28;45301;-72
2022/05/20 05:16:21;;;;;;;4.95;1.48;;;;;;;23.11;49.45;102094.13;2086215;28;46373;-72
2022/05/20 05:18:47;;;;;;;4.93;1.65;;;;;;;23.09;49.52;102095.19;2087099;28;43334;-72
2022/05/20 05:19:48;;;;;;;4.18;1.70;;;;;;;23.39;47.42;102095.28;2086489;28;46519;-73